Samuel De Champlain — WDC8307 — position and weather

sailwx.info

Track history (hours):
 
Tides and Currents Weather Stations Pressure Air Temp Water Temp Dewpoint Dewpoint Depression Visibility Wind Speed Wind Dir Waves Ship Positions

Samuel De Champlain

Owner: American Transport Leasing, Muskegon, MI. More information available from US FCC via Universal Licensing System and Coast Guard Vessel Documentation Center.

Last reported at 2018-Jun-15 12:55 UTC. Time now 2018-Jun-20 11:28 UTC.
Position N 45°22' W 083°26'.

Length 45 m; draft 5.6 m.

Type: Cargo ship. MMSI: 367084930.

Date/timePositionNaut miles runAvg speedWind from/ knotsBaromVisibWave heightAir tempDewpointWater temp
2018-Jun-15 12:55N 45°22' W 083°26'511.1
2018-Jun-15 12:30N 45°24' W 083°31'611.2
2018-Jun-15 12:00N 45°27' W 083°38'611.1
2018-Jun-15 11:30N 45°30' W 083°45'611.1
2018-Jun-15 11:00N 45°32' W 083°52'611.2
2018-Jun-15 10:28N 45°35' W 083°60'1311.2
2018-Jun-15 09:17N 45°41' W 084°17'410.6
2018-Jun-15 08:53N 45°41' W 084°23'410.7
2018-Jun-15 08:30N 45°42' W 084°28'510.8
2018-Jun-15 08:00N 45°45' W 084°35'511.0
2018-Jun-15 07:30N 45°48' W 084°41'510.3
2018-Jun-15 07:00N 45°49' W 084°49'510.8
2018-Jun-15 06:30N 45°49' W 084°56'510.9
2018-Jun-15 06:00N 45°50' W 085°04'4 8.6
2018-Jun-15 05:30N 45°47' W 085°09'510.7
2018-Jun-15 05:00N 45°42' W 085°12'510.9
2018-Jun-15 04:30N 45°38' W 085°17'510.9
2018-Jun-15 04:00N 45°34' W 085°22'610.9
2018-Jun-15 03:30N 45°29' W 085°27'511.1
2018-Jun-15 03:00N 45°25' W 085°31'611.2
2018-Jun-15 02:30N 45°20' W 085°36'611.1
2018-Jun-15 02:00N 45°16' W 085°41'511.0
2018-Jun-15 01:30N 45°11' W 085°45'  
2018-Jun-10 07:23N 45°42' W 086°05'410.3
2018-Jun-10 07:00N 45°44' W 085°60'510.2
2018-Jun-10 06:30N 45°46' W 085°53'510.2
2018-Jun-10 06:00N 45°49' W 085°47'510.1
2018-Jun-10 05:30N 45°51' W 085°40'510.2
2018-Jun-10 05:00N 45°53' W 085°34'510.3
2018-Jun-10 04:30N 45°53' W 085°27'510.3
2018-Jun-10 04:00N 45°53' W 085°19'510.3
2018-Jun-10 03:30N 45°52' W 085°12'510.3
2018-Jun-10 03:00N 45°51' W 085°05'510.2
2018-Jun-10 02:30N 45°50' W 084°57'510.3
2018-Jun-10 02:00N 45°50' W 084°50'510.3
2018-Jun-10 01:30N 45°49' W 084°43'510.2
2018-Jun-10 00:59N 45°46' W 084°36'510.3
2018-Jun-10 00:30N 45°43' W 084°30'510.3
2018-Jun-10 00:00N 45°41' W 084°23'1810.1
2018-Jun-09 22:11N 45°35' W 083°59'210.4
2018-Jun-09 21:58N 45°34' W 083°56'510.4
2018-Jun-09 21:29N 45°32' W 083°49'510.3
2018-Jun-09 21:00N 45°30' W 083°43'510.3
2018-Jun-09 20:30N 45°28' W 083°36'510.2
2018-Jun-09 20:00N 45°26' W 083°30'510.0
2018-Jun-09 19:29N 45°23' W 083°24'77 2.8
2018-Jun-08 16:00N 44°06' W 083°30'   010 / 121024.310.8 17.7
Track history (hours):
 
Tides and Currents Weather Stations Pressure Air Temp Water Temp Dewpoint Dewpoint Depression Visibility Wind Speed Wind Dir Waves Ship Positions

Samuel De Champlain

Owner: American Transport Leasing, Muskegon, MI. More information available from US FCC via Universal Licensing System and Coast Guard Vessel Documentation Center.

Last reported at 2018-Jun-15 12:55 UTC. Time now 2018-Jun-20 11:28 UTC.
Position N 45°22' W 083°26'.

Length 45 m; draft 5.6 m.

Type: Cargo ship. MMSI: 367084930.

Date/timePositionNaut miles runAvg speedWind from/ knotsBaromVisibWave heightAir tempDewpointWater temp
2018-Jun-15 12:55N 45°22' W 083°26'511.1
2018-Jun-15 12:30N 45°24' W 083°31'611.2
2018-Jun-15 12:00N 45°27' W 083°38'611.1
2018-Jun-15 11:30N 45°30' W 083°45'611.1
2018-Jun-15 11:00N 45°32' W 083°52'611.2
2018-Jun-15 10:28N 45°35' W 083°60'1311.2
2018-Jun-15 09:17N 45°41' W 084°17'410.6
2018-Jun-15 08:53N 45°41' W 084°23'410.7
2018-Jun-15 08:30N 45°42' W 084°28'510.8
2018-Jun-15 08:00N 45°45' W 084°35'511.0
2018-Jun-15 07:30N 45°48' W 084°41'510.3
2018-Jun-15 07:00N 45°49' W 084°49'510.8
2018-Jun-15 06:30N 45°49' W 084°56'510.9
2018-Jun-15 06:00N 45°50' W 085°04'4 8.6
2018-Jun-15 05:30N 45°47' W 085°09'510.7
2018-Jun-15 05:00N 45°42' W 085°12'510.9
2018-Jun-15 04:30N 45°38' W 085°17'510.9
2018-Jun-15 04:00N 45°34' W 085°22'610.9
2018-Jun-15 03:30N 45°29' W 085°27'511.1
2018-Jun-15 03:00N 45°25' W 085°31'611.2
2018-Jun-15 02:30N 45°20' W 085°36'611.1
2018-Jun-15 02:00N 45°16' W 085°41'511.0
2018-Jun-15 01:30N 45°11' W 085°45'  
2018-Jun-10 07:23N 45°42' W 086°05'410.3
2018-Jun-10 07:00N 45°44' W 085°60'510.2
2018-Jun-10 06:30N 45°46' W 085°53'510.2
2018-Jun-10 06:00N 45°49' W 085°47'510.1
2018-Jun-10 05:30N 45°51' W 085°40'510.2
2018-Jun-10 05:00N 45°53' W 085°34'510.3
2018-Jun-10 04:30N 45°53' W 085°27'510.3
2018-Jun-10 04:00N 45°53' W 085°19'510.3
2018-Jun-10 03:30N 45°52' W 085°12'510.3
2018-Jun-10 03:00N 45°51' W 085°05'510.2
2018-Jun-10 02:30N 45°50' W 084°57'510.3
2018-Jun-10 02:00N 45°50' W 084°50'510.3
2018-Jun-10 01:30N 45°49' W 084°43'510.2
2018-Jun-10 00:59N 45°46' W 084°36'510.3
2018-Jun-10 00:30N 45°43' W 084°30'510.3
2018-Jun-10 00:00N 45°41' W 084°23'1810.1
2018-Jun-09 22:11N 45°35' W 083°59'210.4
2018-Jun-09 21:58N 45°34' W 083°56'510.4
2018-Jun-09 21:29N 45°32' W 083°49'510.3
2018-Jun-09 21:00N 45°30' W 083°43'510.3
2018-Jun-09 20:30N 45°28' W 083°36'510.2
2018-Jun-09 20:00N 45°26' W 083°30'510.0
2018-Jun-09 19:29N 45°23' W 083°24'77 2.8
2018-Jun-08 16:00N 44°06' W 083°30'   010 / 121024.310.8 17.7

Dump ship's entire track history